Startpagina
METAR-TAF:

METAR-TAF

Vliegvelden :

Weno, Weno Island, Micronesië

breedte: 07-28N, lengte: 151-51E, hoogte: 3 m

Actueel weer

Dit bericht is 1 uur en het 12 minuten geleden gemaakt, om 09:50 UTC
Wind 8 kt uit het noordoosten
Temperatuur 29°C
Vochtigheid 84%
Druk 1012 hPa
Zicht: 24.1 km
Weinig wolken op 1400 ft
Verspreide wolken op 29000 ft

METAR: PTKK 260950Z 05008KT 15SM FEW014 SCT290 29/26 A2987 RMK SLP118 T02890259

Tijdstip: 21:02 (11:02 UTC)

Verwachting

Dit bericht is 5 uur en het 31 minuten geleden gemaakt, om 05:31 UTC
Verwachting geldig van 26 om 06 UTC tot 27 om 06 UTC
Wind 10 kt uit het noordoosten
Zicht: 10 km
Weinig wolken op 1500 ft
Verspreide wolken op 5000 ft
buien in de omgeving

TAF: PTKK 260531Z 2606/2706 04010KT P6SM VCSH FEW015 SCT050

Waarnemingen en weersverwachtingen van meer dan 4000 vliegvelden (METAR en TAF).

De beschikbare stations zijn de gele en rode punten op de kaart.

Ga met uw muis naar het station om de naam te zien.

Klik dan om waarnemingen en weersverwachtingen te zien.

kaart wijzigen: klik op de groene knoppen met een zwart kruis om in te zoomen, op de groene knop met een streepje om uit te zoomen of op de groene pijlen voor aangrenzende kaarten.


METAR-TAF: